Time;durP1;ratioP1;P1;durP2;ratioP2;P2;SDS_P1;SDS_P2;PMS_P1;PMS_P2;Temp;Humidity;BMP_temperature;BMP_pressure;BME280_temperature;BME280_humidity;BME280_pressure;Samples;Min_cycle;Max_cycle;Signal;HPM_P1;HPM_P2
2023/12/06 00:02:00;;;;;;;33.87;19.47;;;;;;;;;;4991247;28;20179;-66
2023/12/06 00:04:26;;;;;;;37.03;19.53;;;;;;;;;;4992671;28;20607;-66
2023/12/06 00:06:51;;;;;;;30.37;17.93;;;;;;;;;;4992483;28;20215;-66
2023/12/06 00:09:16;;;;;;;30.33;17.80;;;;;;;;;;4991236;28;20183;-66
2023/12/06 00:11:41;;;;;;;34.20;19.70;;;;;;;;;;4990206;28;20171;-65
2023/12/06 00:14:06;;;;;;;31.37;19.53;;;;;;;;;;4992192;28;20579;-66
2023/12/06 00:16:32;;;;;;;32.13;18.30;;;;;;;;;;4992132;28;20196;-66
2023/12/06 00:18:57;;;;;;;35.07;19.57;;;;;;;;;;4982346;28;20188;-66
2023/12/06 00:21:22;;;;;;;32.93;18.57;;;;;;;;;;4979556;28;20266;-65
2023/12/06 00:23:47;;;;;;;34.47;19.00;;;;;;;;;;4978469;28;20254;-65
2023/12/06 00:26:13;;;;;;;39.20;19.83;;;;;;;;;;4978303;28;20207;-65
2023/12/06 00:28:38;;;;;;;33.60;19.37;;;;;;;;;;4985281;28;20210;-66
2023/12/06 00:31:03;;;;;;;32.60;18.90;;;;;;;;;;4997576;28;20207;-66
2023/12/06 00:33:28;;;;;;;31.80;18.07;;;;;;;;;;4990205;28;20187;-66
2023/12/06 00:35:54;;;;;;;28.43;17.40;;;;;;;;;;4999605;28;20244;-65
2023/12/06 00:38:19;;;;;;;30.03;18.23;;;;;;;;;;4982447;28;20222;-65
2023/12/06 00:40:44;;;;;;;29.53;17.87;;;;;;;;;;4999156;28;20266;-66
2023/12/06 00:43:10;;;;;;;31.27;17.80;;;;;;;;;;4990690;28;20179;-66
2023/12/06 00:45:35;;;;;;;28.83;17.30;;;;;;;;;;4991894;28;20207;-66
2023/12/06 00:48:00;;;;;;;27.17;18.00;;;;;;;;;;4992155;28;20253;-67
2023/12/06 00:50:26;;;;;;;30.57;18.00;;;;;;;;;;4992059;28;20298;-64
2023/12/06 00:52:51;;;;;;;24.63;16.47;;;;;;;;;;4980097;28;20267;-65
2023/12/06 00:55:16;;;;;;;30.20;17.57;;;;;;;;;;4991342;28;20646;-64
2023/12/06 00:57:41;;;;;;;30.37;15.80;;;;;;;;;;4983331;28;20194;-66
2023/12/06 01:00:08;;;;;;;28.47;18.00;;;;;;;;;;4987503;28;20589;-65
2023/12/06 01:02:33;;;;;;;33.03;17.23;;;;;;;;;;4990798;28;20258;-65
2023/12/06 01:04:58;;;;;;;27.00;15.97;;;;;;;;;;4991924;28;20267;-65
2023/12/06 01:07:24;;;;;;;26.10;15.23;;;;;;;;;;4990497;28;20286;-65
2023/12/06 01:09:49;;;;;;;28.70;17.27;;;;;;;;;;4986958;28;20555;-64
2023/12/06 01:12:14;;;;;;;24.53;15.67;;;;;;;;;;4985427;28;20226;-65
2023/12/06 01:14:39;;;;;;;24.10;15.43;;;;;;;;;;5005789;28;20177;-65
2023/12/06 01:17:05;;;;;;;24.60;14.97;;;;;;;;;;5005551;28;20199;-65
2023/12/06 01:19:30;;;;;;;24.97;15.10;;;;;;;;;;4991404;28;20237;-66
2023/12/06 01:21:55;;;;;;;25.47;15.80;;;;;;;;;;4993721;28;20222;-65
2023/12/06 01:24:21;;;;;;;24.00;15.97;;;;;;;;;;4995043;28;20242;-65
2023/12/06 01:26:46;;;;;;;22.53;15.27;;;;;;;;;;4994309;28;20701;-65
2023/12/06 01:29:11;;;;;;;25.40;14.27;;;;;;;;;;4989976;28;20285;-65
2023/12/06 01:31:38;;;;;;;23.33;15.37;;;;;;;;;;4992738;28;20215;-65
2023/12/06 01:34:05;;;;;;;21.70;14.53;;;;;;;;;;5001530;28;20172;-65
2023/12/06 01:36:30;;;;;;;23.97;14.70;;;;;;;;;;4994720;28;20722;-64
2023/12/06 01:38:55;;;;;;;23.40;15.07;;;;;;;;;;4999349;28;20177;-65
2023/12/06 01:41:20;;;;;;;22.00;14.90;;;;;;;;;;4994775;28;20187;-66
2023/12/06 01:43:45;;;;;;;24.10;14.30;;;;;;;;;;4995154;28;20182;-66
2023/12/06 01:46:11;;;;;;;20.83;14.37;;;;;;;;;;4992551;28;20204;-65
2023/12/06 01:48:36;;;;;;;34.10;14.97;;;;;;;;;;4984696;28;20279;-65
2023/12/06 01:51:02;;;;;;;24.77;13.97;;;;;;;;;;4996655;28;20191;-64
2023/12/06 01:53:27;;;;;;;22.30;14.10;;;;;;;;;;4989703;28;20198;-65
2023/12/06 01:55:52;;;;;;;25.07;15.13;;;;;;;;;;4990465;28;20231;-65
2023/12/06 01:58:18;;;;;;;23.93;15.10;;;;;;;;;;4989935;28;20559;-65
2023/12/06 02:00:43;;;;;;;21.63;13.10;;;;;;;;;;4993867;28;20184;-67
2023/12/06 02:03:08;;;;;;;19.93;13.93;;;;;;;;;;4995314;28;20188;-65
2023/12/06 02:05:34;;;;;;;22.23;14.37;;;;;;;;;;4988868;28;20219;-64
2023/12/06 02:08:00;;;;;;;21.90;14.20;;;;;;;;;;4990590;28;20184;-65
2023/12/06 02:10:25;;;;;;;18.93;13.40;;;;;;;;;;4993971;28;20238;-65
2023/12/06 02:12:51;;;;;;;21.47;13.77;;;;;;;;;;4992882;28;20654;-65
2023/12/06 02:15:16;;;;;;;21.10;13.30;;;;;;;;;;4994883;28;20200;-66
2023/12/06 02:17:42;;;;;;;22.17;14.50;;;;;;;;;;4993985;28;20713;-65
2023/12/06 02:20:08;;;;;;;22.97;14.43;;;;;;;;;;4993702;28;20186;-64
2023/12/06 02:22:33;;;;;;;26.80;12.90;;;;;;;;;;4998974;28;20178;-65
2023/12/06 02:24:59;;;;;;;21.83;13.00;;;;;;;;;;4990732;28;20221;-65
2023/12/06 02:27:24;;;;;;;21.27;14.37;;;;;;;;;;4996110;28;20179;-65
2023/12/06 02:29:50;;;;;;;22.00;13.37;;;;;;;;;;4999138;28;20199;-65
2023/12/06 02:32:15;;;;;;;25.23;13.47;;;;;;;;;;4986758;28;20172;-65
2023/12/06 02:34:40;;;;;;;26.20;14.27;;;;;;;;;;4994089;28;20339;-65
2023/12/06 02:37:07;;;;;;;21.57;13.87;;;;;;;;;;4997691;28;20569;-65
2023/12/06 02:39:34;;;;;;;22.90;14.30;;;;;;;;;;4992820;28;20187;-65
2023/12/06 02:42:00;;;;;;;18.73;12.27;;;;;;;;;;4993418;28;20606;-66
2023/12/06 02:44:25;;;;;;;22.53;13.40;;;;;;;;;;5006528;28;20226;-66
2023/12/06 02:46:50;;;;;;;23.07;13.47;;;;;;;;;;5006405;28;20215;-65
2023/12/06 02:49:16;;;;;;;20.20;12.70;;;;;;;;;;4999950;28;20180;-65
2023/12/06 02:51:41;;;;;;;19.43;13.40;;;;;;;;;;4986898;28;20209;-66
2023/12/06 02:54:06;;;;;;;21.87;13.47;;;;;;;;;;4991071;28;20219;-64
2023/12/06 02:56:31;;;;;;;21.50;13.73;;;;;;;;;;5006331;28;20294;-65
2023/12/06 02:58:56;;;;;;;19.97;12.50;;;;;;;;;;4990933;28;20176;-64
2023/12/06 03:01:22;;;;;;;22.20;13.97;;;;;;;;;;4997810;28;20207;-65
2023/12/06 03:03:47;;;;;;;21.20;13.30;;;;;;;;;;4999259;28;20175;-65
2023/12/06 03:06:12;;;;;;;18.93;13.27;;;;;;;;;;4997800;28;20211;-65
2023/12/06 03:08:37;;;;;;;18.10;13.30;;;;;;;;;;4986025;28;20180;-65
2023/12/06 03:11:02;;;;;;;20.03;13.13;;;;;;;;;;4991448;28;20559;-65
2023/12/06 03:13:27;;;;;;;19.50;13.17;;;;;;;;;;5001403;28;20313;-65
2023/12/06 03:15:53;;;;;;;19.80;13.07;;;;;;;;;;4997227;28;20206;-65
2023/12/06 03:18:18;;;;;;;19.30;13.13;;;;;;;;;;5002398;28;20570;-65
2023/12/06 03:20:43;;;;;;;21.70;12.10;;;;;;;;;;5000392;28;20179;-65
2023/12/06 03:23:08;;;;;;;20.43;12.70;;;;;;;;;;5008138;28;20183;-65
2023/12/06 03:25:34;;;;;;;21.23;12.87;;;;;;;;;;4993461;28;20294;-65
2023/12/06 03:27:59;;;;;;;24.33;14.43;;;;;;;;;;4989165;28;20222;-65
2023/12/06 03:30:24;;;;;;;19.97;13.00;;;;;;;;;;4987623;28;20231;-65
2023/12/06 03:32:51;;;;;;;17.37;12.23;;;;;;;;;;4986173;28;20666;-65
2023/12/06 03:35:16;;;;;;;18.33;12.57;;;;;;;;;;4990361;28;20183;-66
2023/12/06 03:37:41;;;;;;;18.20;12.87;;;;;;;;;;4993261;28;20168;-65
2023/12/06 03:40:06;;;;;;;18.50;11.87;;;;;;;;;;4993038;28;20733;-65
2023/12/06 03:42:32;;;;;;;22.77;13.93;;;;;;;;;;5004303;28;20190;-65
2023/12/06 03:44:57;;;;;;;23.90;13.97;;;;;;;;;;5000814;28;20180;-65
2023/12/06 03:47:22;;;;;;;19.17;12.43;;;;;;;;;;4993901;28;20184;-65
2023/12/06 03:49:47;;;;;;;19.37;12.83;;;;;;;;;;4993750;28;20207;-65
2023/12/06 03:52:13;;;;;;;24.73;13.27;;;;;;;;;;4994167;28;20713;-64
2023/12/06 03:54:38;;;;;;;21.23;13.47;;;;;;;;;;4989255;28;20233;-65
2023/12/06 03:57:04;;;;;;;20.87;13.27;;;;;;;;;;4992799;28;20203;-65
2023/12/06 03:59:29;;;;;;;24.20;13.60;;;;;;;;;;5000453;28;20179;-66
2023/12/06 04:01:54;;;;;;;22.03;14.23;;;;;;;;;;5003935;28;20190;-65
2023/12/06 04:04:19;;;;;;;21.73;13.67;;;;;;;;;;5004106;28;20179;-65
2023/12/06 04:06:45;;;;;;;20.60;13.57;;;;;;;;;;4993553;28;20290;-66
2023/12/06 04:09:13;;;;;;;23.27;13.40;;;;;;;;;;4984870;28;20334;-65
2023/12/06 04:11:38;;;;;;;21.17;13.67;;;;;;;;;;4994388;28;20207;-66
2023/12/06 04:14:03;;;;;;;24.67;14.50;;;;;;;;;;5007035;28;20229;-66
2023/12/06 04:16:29;;;;;;;21.40;14.00;;;;;;;;;;4998298;28;20211;-66
2023/12/06 04:18:54;;;;;;;21.93;13.23;;;;;;;;;;5002026;28;20180;-66
2023/12/06 04:21:20;;;;;;;23.37;13.60;;;;;;;;;;4995055;28;20693;-66
2023/12/06 04:23:45;;;;;;;23.73;12.97;;;;;;;;;;4992904;28;20270;-66
2023/12/06 04:26:10;;;;;;;20.93;13.47;;;;;;;;;;4989916;28;20280;-66
2023/12/06 04:28:35;;;;;;;17.87;12.33;;;;;;;;;;4985158;28;20187;-66
2023/12/06 04:31:00;;;;;;;15.83;11.50;;;;;;;;;;4999996;28;20199;-66
2023/12/06 04:33:26;;;;;;;20.03;12.27;;;;;;;;;;4990448;28;20211;-66
2023/12/06 04:35:51;;;;;;;18.37;12.43;;;;;;;;;;4988911;28;20206;-66
2023/12/06 04:38:16;;;;;;;21.70;11.03;;;;;;;;;;4994565;28;20221;-66
2023/12/06 04:40:41;;;;;;;16.87;11.00;;;;;;;;;;4991779;28;20175;-66
2023/12/06 04:43:06;;;;;;;17.50;11.63;;;;;;;;;;4991789;28;20183;-66
2023/12/06 04:45:32;;;;;;;21.70;11.80;;;;;;;;;;4989592;28;20742;-66
2023/12/06 04:47:57;;;;;;;20.53;11.13;;;;;;;;;;5000430;28;20180;-65
2023/12/06 04:50:22;;;;;;;21.33;11.37;;;;;;;;;;4989707;28;20208;-66
2023/12/06 04:52:48;;;;;;;20.53;10.80;;;;;;;;;;4998603;28;20179;-66
2023/12/06 04:55:13;;;;;;;18.47;11.43;;;;;;;;;;5001194;28;20655;-66
2023/12/06 04:57:38;;;;;;;16.77;10.40;;;;;;;;;;4998929;28;20274;-66
2023/12/06 05:00:07;;;;;;;19.33;11.17;;;;;;;;;;4991208;28;20190;-65
2023/12/06 05:02:32;;;;;;;17.27;10.87;;;;;;;;;;4991116;28;20600;-65
2023/12/06 05:04:57;;;;;;;16.63;10.73;;;;;;;;;;4994699;28;20191;-65
2023/12/06 05:07:23;;;;;;;19.43;11.27;;;;;;;;;;4994608;28;20548;-65
2023/12/06 05:09:48;;;;;;;16.33;11.07;;;;;;;;;;4988610;28;20254;-67
2023/12/06 05:12:14;;;;;;;18.87;11.17;;;;;;;;;;4997551;28;20171;-65
2023/12/06 05:14:39;;;;;;;20.03;11.90;;;;;;;;;;4999150;28;20659;-65
2023/12/06 05:17:04;;;;;;;17.60;10.63;;;;;;;;;;5004339;28;20289;-65
2023/12/06 05:19:29;;;;;;;17.27;11.20;;;;;;;;;;5000108;28;20176;-65
2023/12/06 05:21:55;;;;;;;19.80;11.73;;;;;;;;;;4990281;28;20184;-65
2023/12/06 05:24:20;;;;;;;16.70;10.60;;;;;;;;;;4990034;28;20206;-64
2023/12/06 05:26:46;;;;;;;16.43;11.43;;;;;;;;;;4992574;28;20272;-65
2023/12/06 05:29:11;;;;;;;19.77;12.33;;;;;;;;;;4983992;28;20188;-65
2023/12/06 05:31:36;;;;;;;19.00;11.07;;;;;;;;;;4990813;28;20210;-66
2023/12/06 05:34:01;;;;;;;19.73;11.63;;;;;;;;;;4988336;28;20271;-65
2023/12/06 05:36:27;;;;;;;19.10;11.47;;;;;;;;;;4991479;28;20239;-65
2023/12/06 05:38:52;;;;;;;18.63;12.23;;;;;;;;;;4992804;28;20176;-65
2023/12/06 05:41:17;;;;;;;21.10;11.43;;;;;;;;;;4990718;28;20200;-65
2023/12/06 05:43:43;;;;;;;18.80;11.50;;;;;;;;;;4996810;28;20190;-65
2023/12/06 05:46:08;;;;;;;19.20;12.23;;;;;;;;;;4993627;28;20210;-66
2023/12/06 05:48:33;;;;;;;18.57;12.40;;;;;;;;;;5003353;28;20162;-65
2023/12/06 05:50:58;;;;;;;22.67;12.20;;;;;;;;;;4998466;28;20690;-65
2023/12/06 05:53:23;;;;;;;16.13;10.93;;;;;;;;;;4989007;28;20232;-65
2023/12/06 05:55:49;;;;;;;21.13;12.47;;;;;;;;;;4992750;28;20200;-65
2023/12/06 05:58:14;;;;;;;19.23;11.37;;;;;;;;;;4996992;28;20179;-66
2023/12/06 06:00:40;;;;;;;16.97;12.30;;;;;;;;;;4991567;28;20652;-66
2023/12/06 06:03:05;;;;;;;20.00;12.47;;;;;;;;;;4996940;28;20229;-65
2023/12/06 06:05:30;;;;;;;19.60;12.23;;;;;;;;;;5002373;28;20310;-65
2023/12/06 06:07:57;;;;;;;16.63;11.57;;;;;;;;;;4994606;28;20188;-66
2023/12/06 06:10:22;;;;;;;19.20;11.23;;;;;;;;;;4996004;28;20204;-65
2023/12/06 06:12:48;;;;;;;19.50;12.67;;;;;;;;;;4991717;28;20618;-65
2023/12/06 06:15:13;;;;;;;21.53;12.60;;;;;;;;;;4997322;28;20230;-66
2023/12/06 06:17:38;;;;;;;17.83;12.17;;;;;;;;;;4998109;28;20176;-65
2023/12/06 06:20:04;;;;;;;22.83;12.33;;;;;;;;;;4991736;28;20191;-65
2023/12/06 06:22:30;;;;;;;20.40;11.77;;;;;;;;;;4995525;28;20560;-66
2023/12/06 06:24:55;;;;;;;21.10;12.30;;;;;;;;;;5001601;28;20187;-65
2023/12/06 06:27:20;;;;;;;17.87;11.73;;;;;;;;;;4999835;28;20684;-66
2023/12/06 06:29:45;;;;;;;22.03;12.33;;;;;;;;;;4985458;28;20210;-65
2023/12/06 06:32:11;;;;;;;19.83;11.87;;;;;;;;;;4992749;28;20209;-65
2023/12/06 06:34:36;;;;;;;22.37;12.50;;;;;;;;;;4987263;28;20733;-65
2023/12/06 06:37:01;;;;;;;22.27;12.97;;;;;;;;;;4991789;28;20252;-65
2023/12/06 06:39:28;;;;;;;19.33;12.27;;;;;;;;;;4994774;28;20190;-65
2023/12/06 06:41:53;;;;;;;22.07;11.77;;;;;;;;;;4990561;28;20179;-65
2023/12/06 06:44:18;;;;;;;21.33;12.30;;;;;;;;;;4994728;28;20561;-65
2023/12/06 06:46:43;;;;;;;16.17;11.27;;;;;;;;;;4999145;28;20548;-66
2023/12/06 06:49:09;;;;;;;21.07;12.47;;;;;;;;;;5002449;28;20198;-65
2023/12/06 06:51:37;;;;;;;18.03;11.30;;;;;;;;;;4991860;28;20262;-66
2023/12/06 06:54:04;;;;;;;20.20;10.93;;;;;;;;;;4973556;28;20207;-65
2023/12/06 06:56:29;;;;;;;20.93;12.83;;;;;;;;;;4986536;28;20239;-66
2023/12/06 06:58:54;;;;;;;22.30;12.40;;;;;;;;;;4992536;28;20168;-66
2023/12/06 07:01:20;;;;;;;22.07;12.33;;;;;;;;;;4986723;28;20186;-65
2023/12/06 07:03:45;;;;;;;21.27;12.90;;;;;;;;;;4986995;28;20186;-66
2023/12/06 07:06:10;;;;;;;20.30;11.30;;;;;;;;;;4990573;28;20222;-67
2023/12/06 07:08:36;;;;;;;17.93;11.53;;;;;;;;;;4985737;28;20202;-67
2023/12/06 07:11:02;;;;;;;20.73;11.10;;;;;;;;;;4990228;28;20287;-66
2023/12/06 07:13:27;;;;;;;25.90;13.10;;;;;;;;;;4986485;28;20275;-66
2023/12/06 07:15:52;;;;;;;20.80;11.47;;;;;;;;;;4986479;28;20200;-67
2023/12/06 07:18:18;;;;;;;18.97;10.90;;;;;;;;;;4992102;28;20211;-68
2023/12/06 07:20:44;;;;;;;18.47;11.23;;;;;;;;;;4988167;28;20313;-68
2023/12/06 07:23:09;;;;;;;18.70;11.20;;;;;;;;;;4991075;28;20190;-67
2023/12/06 07:25:34;;;;;;;15.40;10.70;;;;;;;;;;4991232;28;20265;-68
2023/12/06 07:28:00;;;;;;;16.23;9.60;;;;;;;;;;4990175;28;20261;-67
2023/12/06 07:30:25;;;;;;;15.57;9.23;;;;;;;;;;4992464;28;20207;-67
2023/12/06 07:32:51;;;;;;;15.30;10.17;;;;;;;;;;4985768;28;20176;-66
2023/12/06 07:35:16;;;;;;;16.70;10.13;;;;;;;;;;4991019;28;20254;-67
2023/12/06 07:37:41;;;;;;;16.70;9.33;;;;;;;;;;4989572;28;20595;-67
2023/12/06 07:40:09;;;;;;;17.23;10.27;;;;;;;;;;4989371;28;20278;-68
2023/12/06 07:42:35;;;;;;;16.70;9.40;;;;;;;;;;4990295;28;20311;-67
2023/12/06 07:45:00;;;;;;;14.53;9.47;;;;;;;;;;4990330;28;20661;-68
2023/12/06 07:47:25;;;;;;;17.37;9.50;;;;;;;;;;4986301;28;20278;-67
2023/12/06 07:49:50;;;;;;;14.70;9.10;;;;;;;;;;4991141;28;20208;-68
2023/12/06 07:52:15;;;;;;;13.73;9.40;;;;;;;;;;4986149;28;20191;-68
2023/12/06 07:54:42;;;;;;;12.00;9.03;;;;;;;;;;4993659;28;20186;-67
2023/12/06 07:57:08;;;;;;;13.90;8.80;;;;;;;;;;4990613;28;20204;-67
2023/12/06 07:59:33;;;;;;;14.27;9.13;;;;;;;;;;4989708;28;20172;-67
2023/12/06 08:01:59;;;;;;;15.43;9.53;;;;;;;;;;4990267;28;20207;-67
2023/12/06 08:04:24;;;;;;;14.40;8.87;;;;;;;;;;4981765;28;20168;-67
2023/12/06 08:06:49;;;;;;;14.13;8.43;;;;;;;;;;4988605;28;20262;-68
2023/12/06 08:09:17;;;;;;;11.23;8.43;;;;;;;;;;4983314;28;20183;-67
2023/12/06 08:11:42;;;;;;;14.87;9.17;;;;;;;;;;4979995;28;20204;-67
2023/12/06 08:14:07;;;;;;;21.57;7.93;;;;;;;;;;4989101;28;20183;-68
2023/12/06 08:16:33;;;;;;;16.90;9.23;;;;;;;;;;4991140;28;20207;-67
2023/12/06 08:18:58;;;;;;;16.30;8.97;;;;;;;;;;4988800;28;20175;-68
2023/12/06 08:21:24;;;;;;;12.93;8.70;;;;;;;;;;4988039;28;20245;-67
2023/12/06 08:23:49;;;;;;;16.07;8.50;;;;;;;;;;4990486;28;20191;-68
2023/12/06 08:26:14;;;;;;;12.10;8.13;;;;;;;;;;4989909;28;20791;-68
2023/12/06 08:28:39;;;;;;;13.00;8.03;;;;;;;;;;4988207;28;20160;-67
2023/12/06 08:31:05;;;;;;;14.77;8.60;;;;;;;;;;4991927;28;20203;-67
2023/12/06 08:33:31;;;;;;;15.70;8.43;;;;;;;;;;4990689;28;20176;-68
2023/12/06 08:35:56;;;;;;;17.17;9.60;;;;;;;;;;4987412;28;20640;-67
2023/12/06 08:38:21;;;;;;;16.03;8.93;;;;;;;;;;4990270;28;20253;-68
2023/12/06 08:40:46;;;;;;;15.47;9.50;;;;;;;;;;4986250;28;20210;-67
2023/12/06 08:43:12;;;;;;;13.93;8.77;;;;;;;;;;4989941;28;20184;-66
2023/12/06 08:45:37;;;;;;;16.37;9.13;;;;;;;;;;4987125;28;20674;-66
2023/12/06 08:48:04;;;;;;;12.23;8.80;;;;;;;;;;4991320;28;20304;-66
2023/12/06 08:50:29;;;;;;;14.57;8.10;;;;;;;;;;4986754;28;20208;-67
2023/12/06 08:52:54;;;;;;;14.60;8.20;;;;;;;;;;4983769;28;20201;-66
2023/12/06 08:55:19;;;;;;;17.50;8.90;;;;;;;;;;4989631;28;20191;-67
2023/12/06 08:57:44;;;;;;;12.73;8.17;;;;;;;;;;4987284;28;20514;-66
2023/12/06 09:00:12;;;;;;;13.47;7.63;;;;;;;;;;4987061;28;20202;-67
2023/12/06 09:02:37;;;;;;;13.17;7.13;;;;;;;;;;4990745;28;20234;-67
2023/12/06 09:05:02;;;;;;;16.97;8.33;;;;;;;;;;4989541;28;20668;-66
2023/12/06 09:07:27;;;;;;;12.83;7.37;;;;;;;;;;4990606;28;20246;-67
2023/12/06 09:09:53;;;;;;;12.10;7.43;;;;;;;;;;4989898;28;20238;-67
2023/12/06 09:12:18;;;;;;;13.37;6.77;;;;;;;;;;4987278;28;20175;-67
2023/12/06 09:14:43;;;;;;;11.87;7.57;;;;;;;;;;4989968;28;20556;-67
2023/12/06 09:17:08;;;;;;;12.47;7.90;;;;;;;;;;4985779;28;20679;-67
2023/12/06 09:19:34;;;;;;;13.10;7.90;;;;;;;;;;4979421;28;20179;-67
2023/12/06 09:21:59;;;;;;;15.33;7.50;;;;;;;;;;4984699;28;20179;-67
2023/12/06 09:24:24;;;;;;;13.50;7.30;;;;;;;;;;4989482;28;20281;-67
2023/12/06 09:26:50;;;;;;;10.17;7.00;;;;;;;;;;4986250;28;20202;-67
2023/12/06 09:29:15;;;;;;;11.27;6.47;;;;;;;;;;4986869;28;20176;-67
2023/12/06 09:31:40;;;;;;;13.03;5.87;;;;;;;;;;4982713;28;20211;-67
2023/12/06 09:34:06;;;;;;;12.83;6.73;;;;;;;;;;4991045;28;20187;-66
2023/12/06 09:36:32;;;;;;;11.27;6.40;;;;;;;;;;4988150;28;20694;-67
2023/12/06 09:38:57;;;;;;;10.37;6.17;;;;;;;;;;4981960;28;20180;-67
2023/12/06 09:41:27;;;;;;;14.37;6.20;;;;;;;;;;4991456;28;20236;-67
2023/12/06 09:43:52;;;;;;;9.60;5.40;;;;;;;;;;4986984;28;20182;-67
2023/12/06 09:46:17;;;;;;;12.27;6.17;;;;;;;;;;4991234;28;20204;-67
2023/12/06 09:48:43;;;;;;;12.33;6.80;;;;;;;;;;4986575;28;20698;-67
2023/12/06 09:51:08;;;;;;;12.33;7.43;;;;;;;;;;4988290;28;20215;-66
2023/12/06 09:53:33;;;;;;;16.93;7.33;;;;;;;;;;4989789;28;20183;-66
2023/12/06 09:55:59;;;;;;;10.33;6.77;;;;;;;;;;4990986;28;20200;-68
2023/12/06 09:58:25;;;;;;;10.73;5.90;;;;;;;;;;4991144;28;20213;-68
2023/12/06 10:00:50;;;;;;;11.60;6.73;;;;;;;;;;4989055;28;20183;-68
2023/12/06 10:03:15;;;;;;;12.80;6.27;;;;;;;;;;4990809;28;20183;-67
2023/12/06 10:05:41;;;;;;;9.80;6.57;;;;;;;;;;4983082;28;20277;-68
2023/12/06 10:08:06;;;;;;;8.47;5.73;;;;;;;;;;4989758;28;20191;-68
2023/12/06 10:10:31;;;;;;;11.73;6.90;;;;;;;;;;4987106;28;20208;-67
2023/12/06 10:12:57;;;;;;;10.03;6.07;;;;;;;;;;4978875;28;20206;-67
2023/12/06 10:15:22;;;;;;;11.47;6.63;;;;;;;;;;4992499;28;20253;-68
2023/12/06 10:17:48;;;;;;;10.83;6.73;;;;;;;;;;4989829;28;20259;-68
2023/12/06 10:20:13;;;;;;;9.70;6.47;;;;;;;;;;4992140;28;20183;-68
2023/12/06 10:22:39;;;;;;;17.43;7.20;;;;;;;;;;4989218;28;20391;-68
2023/12/06 10:25:06;;;;;;;12.93;7.43;;;;;;;;;;4991840;28;20186;-68
2023/12/06 10:27:32;;;;;;;15.90;7.50;;;;;;;;;;4993060;28;20245;-67
2023/12/06 10:29:57;;;;;;;8.70;5.53;;;;;;;;;;4991887;28;20287;-68
2023/12/06 10:32:22;;;;;;;12.80;6.67;;;;;;;;;;4987831;28;20275;-67
2023/12/06 10:34:48;;;;;;;13.83;6.57;;;;;;;;;;4980758;28;20183;-67
2023/12/06 10:37:18;;;;;;;13.33;6.77;;;;;;;;;;4989907;28;20206;-68
2023/12/06 10:39:44;;;;;;;13.07;6.87;;;;;;;;;;4989201;28;20611;-67
2023/12/06 10:42:14;;;;;;;12.63;6.50;;;;;;;;;;4991642;28;20207;-66
2023/12/06 10:44:39;;;;;;;12.17;6.97;;;;;;;;;;4989099;28;20207;-66
2023/12/06 10:47:05;;;;;;;11.70;6.57;;;;;;;;;;4988489;28;20238;-67
2023/12/06 10:49:32;;;;;;;17.97;7.50;;;;;;;;;;4990815;28;20211;-66
2023/12/06 10:51:58;;;;;;;11.73;7.40;;;;;;;;;;4989944;28;20188;-66
2023/12/06 10:54:24;;;;;;;15.40;8.73;;;;;;;;;;4993086;28;20180;-67
2023/12/06 10:56:49;;;;;;;12.77;6.93;;;;;;;;;;4992927;28;20566;-67
2023/12/06 10:59:16;;;;;;;15.33;8.50;;;;;;;;;;4992143;28;20175;-68
2023/12/06 11:01:42;;;;;;;29.10;8.80;;;;;;;;;;4991103;28;20194;-67
2023/12/06 11:04:08;;;;;;;10.50;7.83;;;;;;;;;;4989149;28;20187;-68
2023/12/06 11:06:33;;;;;;;10.33;7.00;;;;;;;;;;4991425;28;20223;-67
2023/12/06 11:09:02;;;;;;;9.83;7.00;;;;;;;;;;4991157;28;20227;-67
2023/12/06 11:11:37;;;;;;;11.47;6.70;;;;;;;;;;4990967;28;20249;-67
2023/12/06 11:14:03;;;;;;;10.50;6.70;;;;;;;;;;4987661;28;20183;-68
2023/12/06 11:16:31;;;;;;;18.43;5.67;;;;;;;;;;4991289;28;20183;-67
2023/12/06 11:18:56;;;;;;;11.23;5.70;;;;;;;;;;4991457;28;20172;-68
2023/12/06 11:21:22;;;;;;;13.63;6.80;;;;;;;;;;4990290;28;20682;-68
2023/12/06 11:23:47;;;;;;;9.70;5.93;;;;;;;;;;4988385;28;20241;-67
2023/12/06 11:26:12;;;;;;;8.17;5.30;;;;;;;;;;4992235;28;20234;-67
2023/12/06 11:28:41;;;;;;;14.30;5.97;;;;;;;;;;4990869;28;20322;-68
2023/12/06 11:31:07;;;;;;;7.13;4.90;;;;;;;;;;4992213;28;20246;-68
2023/12/06 11:33:32;;;;;;;11.13;5.30;;;;;;;;;;4991132;28;20207;-68
2023/12/06 11:35:58;;;;;;;11.60;5.40;;;;;;;;;;4987262;28;20276;-68
2023/12/06 11:38:33;;;;;;;6.07;4.27;;;;;;;;;;4988823;28;20172;-66
2023/12/06 11:40:59;;;;;;;4.80;3.77;;;;;;;;;;4990578;28;20214;-67
2023/12/06 11:43:30;;;;;;;7.97;4.10;;;;;;;;;;4983396;28;20183;-66
2023/12/06 11:46:08;;;;;;;7.40;3.93;;;;;;;;;;4985668;28;20299;-68
2023/12/06 11:48:37;;;;;;;6.27;4.43;;;;;;;;;;4988676;28;20197;-65
2023/12/06 11:51:04;;;;;;;4.80;3.50;;;;;;;;;;4988765;28;20226;-67
2023/12/06 11:53:29;;;;;;;6.57;3.13;;;;;;;;;;4992519;28;20180;-67
2023/12/06 11:55:55;;;;;;;4.70;3.00;;;;;;;;;;4981462;28;20331;-67
2023/12/06 11:58:20;;;;;;;5.47;2.90;;;;;;;;;;4986289;28;20666;-67
2023/12/06 12:00:47;;;;;;;3.80;2.23;;;;;;;;;;4984873;28;20262;-67
2023/12/06 12:03:14;;;;;;;4.00;2.87;;;;;;;;;;4981437;28;20674;-66
2023/12/06 12:05:41;;;;;;;5.03;3.40;;;;;;;;;;4982658;28;21389;-67
2023/12/06 12:08:07;;;;;;;5.73;4.10;;;;;;;;;;4977698;28;20180;-67
2023/12/06 12:10:33;;;;;;;6.57;4.03;;;;;;;;;;4981428;28;20200;-68
2023/12/06 12:12:59;;;;;;;8.63;5.37;;;;;;;;;;4986885;28;20208;-67
2023/12/06 12:15:27;;;;;;;9.37;5.30;;;;;;;;;;4989244;28;20281;-67
2023/12/06 12:17:53;;;;;;;6.47;5.17;;;;;;;;;;4989325;28;20175;-67
2023/12/06 12:20:18;;;;;;;9.37;5.93;;;;;;;;;;4991014;28;20271;-67
2023/12/06 12:22:50;;;;;;;8.47;5.13;;;;;;;;;;4988396;28;20581;-67
2023/12/06 12:25:16;;;;;;;9.83;5.23;;;;;;;;;;4981770;28;20187;-67
2023/12/06 12:27:44;;;;;;;9.33;5.47;;;;;;;;;;4987429;28;20193;-68
2023/12/06 12:30:12;;;;;;;9.07;5.47;;;;;;;;;;4988701;28;20226;-67
2023/12/06 12:32:38;;;;;;;9.13;4.70;;;;;;;;;;4991235;28;20666;-67
2023/12/06 12:35:04;;;;;;;10.47;4.13;;;;;;;;;;4989543;28;20263;-67
2023/12/06 12:37:30;;;;;;;9.10;5.00;;;;;;;;;;4988277;28;20184;-66
2023/12/06 12:39:55;;;;;;;6.07;4.23;;;;;;;;;;4993668;28;20183;-67
2023/12/06 12:42:20;;;;;;;9.57;4.17;;;;;;;;;;4988879;28;20620;-67
2023/12/06 12:44:45;;;;;;;6.77;4.63;;;;;;;;;;4988508;28;20217;-67
2023/12/06 12:47:10;;;;;;;8.73;6.23;;;;;;;;;;4991271;28;20298;-67
2023/12/06 12:49:36;;;;;;;10.33;5.77;;;;;;;;;;4987233;28;20263;-67
2023/12/06 12:52:02;;;;;;;6.43;5.37;;;;;;;;;;4989972;28;20234;-66
2023/12/06 12:54:27;;;;;;;10.20;4.90;;;;;;;;;;4986853;28;20536;-67
2023/12/06 12:56:53;;;;;;;7.63;5.00;;;;;;;;;;4987278;28;20199;-67
2023/12/06 12:59:19;;;;;;;5.90;4.40;;;;;;;;;;4987546;28;20231;-67
2023/12/06 13:01:44;;;;;;;8.43;4.73;;;;;;;;;;4988609;28;20663;-67
2023/12/06 13:04:10;;;;;;;8.57;4.27;;;;;;;;;;4982991;28;20198;-66
2023/12/06 13:06:35;;;;;;;9.57;5.87;;;;;;;;;;4985304;28;20219;-66
2023/12/06 13:09:01;;;;;;;12.33;7.03;;;;;;;;;;4993455;28;20186;-67
2023/12/06 13:11:26;;;;;;;8.67;6.13;;;;;;;;;;4991716;28;20215;-67
2023/12/06 13:13:51;;;;;;;7.33;5.03;;;;;;;;;;4993688;28;20191;-67
2023/12/06 13:16:18;;;;;;;8.47;5.10;;;;;;;;;;4993041;28;20199;-66
2023/12/06 13:18:43;;;;;;;7.93;4.57;;;;;;;;;;4990272;28;20167;-67
2023/12/06 13:21:08;;;;;;;7.50;5.17;;;;;;;;;;4991622;28;20226;-67
2023/12/06 13:23:35;;;;;;;8.03;5.27;;;;;;;;;;4994644;28;20582;-67
2023/12/06 13:26:00;;;;;;;7.10;4.13;;;;;;;;;;4983563;28;20224;-67
2023/12/06 13:28:25;;;;;;;7.13;3.67;;;;;;;;;;4994805;28;20693;-66
2023/12/06 13:30:52;;;;;;;6.77;4.70;;;;;;;;;;4991746;28;20196;-67
2023/12/06 13:33:18;;;;;;;7.50;4.40;;;;;;;;;;4998859;28;20179;-67
2023/12/06 13:35:43;;;;;;;7.23;3.97;;;;;;;;;;4991199;28;20203;-66
2023/12/06 13:38:08;;;;;;;8.70;4.00;;;;;;;;;;4989496;28;20183;-67
2023/12/06 13:40:33;;;;;;;5.73;3.30;;;;;;;;;;4988232;28;20263;-66
2023/12/06 13:42:59;;;;;;;4.50;2.63;;;;;;;;;;4989487;28;20554;-66
2023/12/06 13:45:25;;;;;;;3.73;2.30;;;;;;;;;;4993350;28;20203;-68
2023/12/06 13:47:51;;;;;;;3.47;2.40;;;;;;;;;;4991412;28;20183;-66
2023/12/06 13:50:16;;;;;;;4.50;2.40;;;;;;;;;;4989484;28;20561;-67
2023/12/06 13:52:41;;;;;;;5.40;3.23;;;;;;;;;;4989638;28;20188;-67
2023/12/06 13:55:08;;;;;;;6.93;3.70;;;;;;;;;;4991839;28;20217;-66
2023/12/06 13:57:34;;;;;;;3.00;2.47;;;;;;;;;;4992603;28;20190;-67
2023/12/06 13:59:59;;;;;;;4.17;3.33;;;;;;;;;;4994585;28;20187;-67
2023/12/06 14:02:25;;;;;;;6.40;3.30;;;;;;;;;;4989903;28;20176;-67
2023/12/06 14:04:50;;;;;;;5.47;3.20;;;;;;;;;;4989002;28;20192;-68
2023/12/06 14:07:16;;;;;;;4.33;2.80;;;;;;;;;;5009947;23;20604;-63
2023/12/06 14:09:41;;;;;;;5.10;2.90;;;;;;;;;;5004755;28;20639;-63
2023/12/06 14:12:06;;;;;;;8.70;4.63;;;;;;;;;;5003794;28;20174;-64
2023/12/06 14:14:32;;;;;;;3.37;2.97;;;;;;;;;;5008722;28;20187;-64
2023/12/06 14:16:57;;;;;;;6.57;3.77;;;;;;;;;;4994636;28;20254;-65